createdAt,value
2022-10-24T00:00:02.139Z,101610.97
2022-10-24T00:02:32.939Z,101619.63
2022-10-24T00:05:01.079Z,101608.31
2022-10-24T00:07:31.031Z,101614.38
2022-10-24T00:10:01.204Z,101614.38
2022-10-24T00:12:30.457Z,101616.97
2022-10-24T00:14:58.468Z,101611.69
2022-10-24T00:17:26.312Z,101619.56
2022-10-24T00:19:54.890Z,101619.63
2022-10-24T00:22:22.893Z,101623.84
2022-10-24T00:24:50.714Z,101623.03
2022-10-24T00:27:18.664Z,101618.66
2022-10-24T00:29:48.323Z,101616.97
2022-10-24T00:32:16.294Z,101616.97
2022-10-24T00:34:44.203Z,101614.38
2022-10-24T00:37:12.241Z,101623.84
2022-10-24T00:39:40.351Z,101620.38
2022-10-24T00:42:10.549Z,101626.31
2022-10-24T00:44:40.305Z,101627.25
2022-10-24T00:47:14.247Z,101621.25
2022-10-24T00:49:47.484Z,101620.44
2022-10-24T00:52:18.216Z,101628.16
2022-10-24T00:54:47.738Z,101625.56
2022-10-24T00:57:22.239Z,101616.91
2022-10-24T00:59:54.651Z,101617.81
2022-10-24T01:02:23.931Z,101620.44
2022-10-24T01:04:54.186Z,101625.56
2022-10-24T01:07:34.857Z,101619.56
2022-10-24T01:10:16.063Z,101624.78
2022-10-24T01:13:00.263Z,101628.31
2022-10-24T01:15:37.174Z,101624.78
2022-10-24T01:18:11.847Z,101633.50
2022-10-24T01:21:08.540Z,101628.38
2022-10-24T01:24:02.453Z,101621.44
2022-10-24T01:27:00.247Z,101627.50
2022-10-24T01:29:47.892Z,101629.25
2022-10-24T01:32:23.728Z,101633.56
2022-10-24T01:35:01.442Z,101629.19
2022-10-24T01:37:38.733Z,101621.44
2022-10-24T01:40:14.290Z,101621.38
2022-10-24T01:42:44.355Z,101617.88
2022-10-24T01:45:20.209Z,101616.97
2022-10-24T01:47:52.299Z,101610.91
2022-10-24T01:50:23.725Z,101601.38
2022-10-24T01:52:53.009Z,101605.66
2022-10-24T01:55:21.066Z,101597.84
2022-10-24T01:57:49.033Z,101596.09
2022-10-24T02:00:21.232Z,101595.22
2022-10-24T02:02:55.331Z,101598.69
2022-10-24T02:05:26.850Z,101596.09
2022-10-24T02:07:57.714Z,101597.84
2022-10-24T02:10:29.376Z,101600.38
2022-10-24T02:13:03.113Z,101599.56
2022-10-24T02:15:37.475Z,101599.56
2022-10-24T02:18:05.865Z,101600.63
2022-10-24T02:20:37.381Z,101598.97
2022-10-24T02:23:11.750Z,101601.63
2022-10-24T02:28:17.824Z,101596.34
2022-10-24T02:30:53.119Z,101600.69
2022-10-24T02:33:22.084Z,101602.47
2022-10-24T02:35:52.642Z,101599.88
2022-10-24T02:38:24.962Z,101591.16
2022-10-24T02:40:54.954Z,101600.69
2022-10-24T02:43:23.813Z,101602.47
2022-10-24T02:45:55.813Z,101599.88
2022-10-24T02:48:29.755Z,101605.16
2022-10-24T02:51:01.809Z,101600.75
2022-10-24T02:53:30.637Z,101605.06
2022-10-24T02:55:58.537Z,101592.91
2022-10-24T02:58:26.616Z,101594.59
2022-10-24T03:00:55.931Z,101596.28
2022-10-24T03:03:23.900Z,101585.81
2022-10-24T03:05:51.767Z,101587.56
2022-10-24T03:08:19.806Z,101591.09
2022-10-24T03:10:48.042Z,101587.56
2022-10-24T03:13:15.902Z,101581.53
2022-10-24T03:15:43.944Z,101583.28
2022-10-24T03:18:13.167Z,101583.34
2022-10-24T03:20:41.017Z,101573.78
2022-10-24T03:23:08.894Z,101574.69
2022-10-24T03:25:36.768Z,101573.78
2022-10-24T03:28:05.174Z,101559.06
2022-10-24T03:30:33.160Z,101560.97
2022-10-24T03:33:01.070Z,101567.00
2022-10-24T03:35:30.843Z,101571.38
2022-10-24T03:37:58.823Z,101567.16
2022-10-24T03:40:26.695Z,101571.38
2022-10-24T03:42:54.536Z,101560.06
2022-10-24T03:45:22.435Z,101561.75
2022-10-24T03:47:50.310Z,101561.75
2022-10-24T03:50:18.307Z,101565.13
2022-10-24T03:52:47.767Z,101552.97
2022-10-24T03:55:15.856Z,101550.44
2022-10-24T03:57:43.989Z,101551.22
2022-10-24T04:00:12.618Z,101556.47
2022-10-24T04:02:43.117Z,101551.28
2022-10-24T04:05:12.342Z,101559.13
2022-10-24T04:07:43.379Z,101560.91
2022-10-24T04:10:13.482Z,101553.88
2022-10-24T04:12:41.355Z,101551.28
2022-10-24T04:15:09.783Z,101550.38
2022-10-24T04:17:37.714Z,101549.47
2022-10-24T04:20:06.576Z,101545.19
2022-10-24T04:22:34.618Z,101549.47
2022-10-24T04:25:02.480Z,101548.59
2022-10-24T04:27:31.755Z,101545.09
2022-10-24T04:29:59.920Z,101546.78
2022-10-24T04:32:27.846Z,101541.59
2022-10-24T04:34:55.734Z,101536.38
2022-10-24T04:37:23.663Z,101533.78
2022-10-24T04:39:53.687Z,101540.72
2022-10-24T04:42:21.867Z,101542.56
2022-10-24T04:44:51.123Z,101535.59
2022-10-24T04:49:48.125Z,101540.78
2022-10-24T04:52:15.966Z,101542.56
2022-10-24T04:54:43.798Z,101540.88
2022-10-24T04:57:11.674Z,101547.72
2022-10-24T04:59:39.642Z,101540.78
2022-10-24T05:02:09.323Z,101540.03
2022-10-24T05:04:37.213Z,101549.53
2022-10-24T05:07:05.360Z,101544.31
2022-10-24T05:09:33.471Z,101548.59
2022-10-24T05:12:02.253Z,101544.31
2022-10-24T05:14:30.192Z,101548.59
2022-10-24T05:16:58.089Z,101550.31
2022-10-24T05:19:27.396Z,101544.25
2022-10-24T05:21:55.244Z,101539.13
2022-10-24T05:24:23.462Z,101546.72
2022-10-24T05:26:51.324Z,101539.78
2022-10-24T05:29:19.330Z,101540.59
2022-10-24T05:31:47.184Z,101541.38
2022-10-24T05:34:15.247Z,101536.25
2022-10-24T05:36:44.674Z,101533.72
2022-10-24T05:39:12.567Z,101536.38
2022-10-24T05:41:44.670Z,101539.00
2022-10-24T05:44:15.692Z,101535.53
2022-10-24T05:46:43.572Z,101530.31
2022-10-24T05:49:14.208Z,101537.25
2022-10-24T05:51:42.076Z,101536.25
2022-10-24T05:56:40.705Z,101540.53
2022-10-24T05:59:08.601Z,101536.19
2022-10-24T06:01:36.575Z,101534.44
2022-10-24T06:04:04.563Z,101531.84
2022-10-24T06:06:32.431Z,101527.53
2022-10-24T06:09:00.278Z,101521.38
2022-10-24T06:11:30.046Z,101528.25
2022-10-24T06:13:57.967Z,101532.66
2022-10-24T06:16:27.626Z,101525.66
2022-10-24T06:18:55.471Z,101528.19
2022-10-24T06:21:23.761Z,101529.03
2022-10-24T06:23:51.722Z,101528.19
2022-10-24T06:26:23.110Z,101526.44
2022-10-24T06:28:54.704Z,101524.59
2022-10-24T06:31:22.643Z,101526.31
2022-10-24T06:33:50.584Z,101523.56
2022-10-24T06:36:18.518Z,101527.00
2022-10-24T06:38:46.397Z,101524.31
2022-10-24T06:41:17.174Z,101521.56
2022-10-24T06:43:45.294Z,101525.91
2022-10-24T06:46:16.859Z,101511.03
2022-10-24T06:48:45.732Z,101523.09
2022-10-24T06:51:16.737Z,101530.91
2022-10-24T06:53:44.572Z,101523.84
2022-10-24T06:56:12.979Z,101527.22
2022-10-24T06:58:40.800Z,101525.41
2022-10-24T07:01:09.935Z,101528.84
2022-10-24T07:03:39.480Z,101533.09
2022-10-24T07:06:09.185Z,101524.34
2022-10-24T07:08:37.198Z,101529.41
2022-10-24T07:11:05.144Z,101524.06
2022-10-24T07:13:32.977Z,101524.91
2022-10-24T07:16:01.105Z,101519.69
2022-10-24T07:18:29.215Z,101524.75
2022-10-24T07:21:02.620Z,101527.28
2022-10-24T07:23:30.484Z,101529.00
2022-10-24T07:26:03.025Z,101532.38
2022-10-24T07:28:30.866Z,101532.22
2022-10-24T07:30:59.097Z,101529.56
2022-10-24T07:33:27.532Z,101525.97
2022-10-24T07:35:55.725Z,101524.19
2022-10-24T07:38:25.004Z,101521.53
2022-10-24T07:40:53.388Z,101522.25
2022-10-24T07:43:21.279Z,101520.41
2022-10-24T07:45:52.078Z,101525.50
2022-10-24T07:48:20.712Z,101520.22
2022-10-24T07:50:49.144Z,101521.81
2022-10-24T07:53:17.279Z,101515.53
2022-10-24T07:55:46.470Z,101525.81
2022-10-24T07:58:15.158Z,101524.91
2022-10-24T08:00:45.385Z,101523.78
2022-10-24T08:03:13.564Z,101513.44
2022-10-24T08:05:41.860Z,101518.50
2022-10-24T08:08:35.516Z,101523.41
2022-10-24T08:13:28.770Z,101518.19
2022-10-24T08:15:56.582Z,101522.28
2022-10-24T08:18:24.452Z,101520.38
2022-10-24T08:20:59.911Z,101520.31
2022-10-24T08:23:27.841Z,101522.75
2022-10-24T08:25:56.069Z,101521.75
2022-10-24T08:28:25.847Z,101519.94
2022-10-24T08:30:58.025Z,101528.50
2022-10-24T08:33:26.460Z,101526.69
2022-10-24T08:35:56.018Z,101530.13
2022-10-24T08:38:23.960Z,101524.00
2022-10-24T08:40:51.887Z,101523.00
2022-10-24T08:43:20.831Z,101526.38
2022-10-24T08:45:59.811Z,101529.69
2022-10-24T08:48:33.259Z,101526.09
2022-10-24T08:51:14.438Z,101525.00
2022-10-24T08:53:42.418Z,101522.25
2022-10-24T08:56:12.812Z,101523.03
2022-10-24T08:58:43.302Z,101522.16
2022-10-24T09:01:18.030Z,101518.63
2022-10-24T09:03:57.347Z,101513.91
2022-10-24T09:06:27.679Z,101509.38
2022-10-24T09:08:58.261Z,101513.59
2022-10-24T09:11:33.100Z,101499.63
2022-10-24T09:14:03.686Z,101498.50
2022-10-24T09:16:33.031Z,101501.84
2022-10-24T09:19:01.364Z,101493.97
2022-10-24T09:21:31.223Z,101498.28
2022-10-24T09:23:59.223Z,101490.22
2022-10-24T09:26:32.067Z,101490.97
2022-10-24T09:29:00.062Z,101494.28
2022-10-24T09:31:28.820Z,101500.13
2022-10-24T09:34:00.464Z,101504.25
2022-10-24T09:36:31.774Z,101497.94
2022-10-24T09:39:24.383Z,101493.50
2022-10-24T09:41:52.506Z,101501.91
2022-10-24T09:44:33.748Z,101499.91
2022-10-24T09:47:03.085Z,101499.75
2022-10-24T09:49:41.291Z,101497.00
2022-10-24T09:52:19.786Z,101493.38
2022-10-24T09:54:48.445Z,101498.41
2022-10-24T09:57:18.511Z,101486.22
2022-10-24T09:59:47.810Z,101491.28
2022-10-24T10:02:25.493Z,101492.06
2022-10-24T10:05:20.677Z,101480.69
2022-10-24T10:07:50.553Z,101481.28
2022-10-24T10:10:39.485Z,101483.63
2022-10-24T10:13:23.300Z,101475.63
2022-10-24T10:15:54.985Z,101471.16
2022-10-24T10:18:32.610Z,101472.75
2022-10-24T10:21:08.771Z,101470.06
2022-10-24T10:23:40.169Z,101466.47
2022-10-24T10:26:14.912Z,101453.25
2022-10-24T10:28:48.507Z,101453.06
2022-10-24T10:31:18.419Z,101447.69
2022-10-24T10:34:03.332Z,101441.28
2022-10-24T10:36:37.183Z,101444.56
2022-10-24T10:39:22.143Z,101439.91
2022-10-24T10:44:43.376Z,101442.09
2022-10-24T10:47:23.791Z,101435.88
2022-10-24T10:49:58.994Z,101433.81
2022-10-24T10:52:33.069Z,101430.09
2022-10-24T10:55:22.642Z,101436.00
2022-10-24T10:57:55.341Z,101432.28
2022-10-24T11:00:26.790Z,101434.72
2022-10-24T11:03:05.725Z,101430.44
2022-10-24T11:05:46.184Z,101439.13
2022-10-24T11:08:20.923Z,101426.31
2022-10-24T11:10:52.748Z,101421.75
2022-10-24T11:13:24.955Z,101426.97
2022-10-24T11:15:57.538Z,101428.59
2022-10-24T11:18:33.093Z,101427.66
2022-10-24T11:21:08.085Z,101421.56
2022-10-24T11:26:16.807Z,101411.78
2022-10-24T11:28:53.460Z,101414.31
2022-10-24T11:31:24.457Z,101418.50
2022-10-24T11:33:57.981Z,101414.91
2022-10-24T11:36:33.860Z,101405.34
2022-10-24T11:39:08.051Z,101410.41
2022-10-24T11:41:42.947Z,101401.75
2022-10-24T11:44:24.455Z,101402.56
2022-10-24T11:47:06.275Z,101398.94
2022-10-24T11:49:39.000Z,101405.84
2022-10-24T11:52:17.858Z,101399.78
2022-10-24T11:54:52.608Z,101399.69
2022-10-24T11:57:23.724Z,101394.38
2022-10-24T11:59:54.038Z,101390.06
2022-10-24T12:02:42.770Z,101384.94
2022-10-24T12:05:23.288Z,101380.56
2022-10-24T12:08:14.862Z,101375.59
2022-10-24T12:11:01.073Z,101378.03
2022-10-24T12:13:59.735Z,101372.72
2022-10-24T12:16:41.811Z,101371.88
2022-10-24T12:19:15.082Z,101375.25
2022-10-24T12:21:47.723Z,101371.69
2022-10-24T12:24:24.256Z,101367.31
2022-10-24T12:26:59.542Z,101374.31
2022-10-24T12:29:28.698Z,101362.91
2022-10-24T12:31:57.131Z,101358.44
2022-10-24T12:34:46.133Z,101351.53
2022-10-24T12:37:35.241Z,101354.97
2022-10-24T12:40:51.620Z,101346.28
2022-10-24T12:43:33.684Z,101353.28
2022-10-24T12:46:09.456Z,101335.84
2022-10-24T12:48:43.535Z,101335.84
2022-10-24T12:51:28.791Z,101334.50
2022-10-24T12:54:16.468Z,101329.84
2022-10-24T12:57:21.516Z,101316.69
2022-10-24T12:59:53.037Z,101314.16
2022-10-24T13:02:39.126Z,101315.09
2022-10-24T13:05:19.245Z,101307.16
2022-10-24T13:08:05.599Z,101304.56
2022-10-24T13:10:54.462Z,101313.13
2022-10-24T13:13:48.973Z,101309.78
2022-10-24T13:16:31.758Z,101304.47
2022-10-24T13:19:05.182Z,101303.03
2022-10-24T13:21:36.929Z,101293.25
2022-10-24T13:24:14.049Z,101291.28
2022-10-24T13:26:43.993Z,101286.88
2022-10-24T13:29:15.474Z,101284.28
2022-10-24T13:31:47.611Z,101283.44
2022-10-24T13:34:20.867Z,101283.34
2022-10-24T13:36:52.471Z,101282.59
2022-10-24T13:39:25.629Z,101277.38
2022-10-24T13:42:00.716Z,101278.31
2022-10-24T13:44:34.693Z,101282.78
2022-10-24T13:47:14.915Z,101278.50
2022-10-24T13:49:50.838Z,101273.34
2022-10-24T13:52:23.760Z,101278.59
2022-10-24T13:54:57.638Z,101270.66
2022-10-24T13:57:28.130Z,101263.53
2022-10-24T13:59:57.567Z,101258.66
2022-10-24T14:02:32.328Z,101254.97
2022-10-24T14:05:01.729Z,101253.25
2022-10-24T14:07:33.776Z,101250.75
2022-10-24T14:10:05.641Z,101252.44
2022-10-24T14:12:36.366Z,101237.66
2022-10-24T14:15:06.491Z,101241.13
2022-10-24T14:17:36.289Z,101241.13
2022-10-24T14:20:22.145Z,101232.53
2022-10-24T14:22:50.655Z,101235.06
2022-10-24T14:25:27.103Z,101232.53
2022-10-24T14:27:57.315Z,101228.25
2022-10-24T14:30:32.095Z,101229.28
2022-10-24T14:33:18.673Z,101224.06
2022-10-24T14:35:47.262Z,101230.94
2022-10-24T14:38:17.359Z,101234.59
2022-10-24T14:40:47.467Z,101233.84
2022-10-24T14:43:18.085Z,101238.22
2022-10-24T14:46:06.809Z,101234.69
2022-10-24T14:48:36.425Z,101237.50
2022-10-24T14:51:07.332Z,101236.56
2022-10-24T14:53:35.726Z,101227.84
2022-10-24T14:56:04.268Z,101217.41
2022-10-24T14:58:33.571Z,101218.25
2022-10-24T15:01:01.826Z,101224.34
2022-10-24T15:03:30.662Z,101212.34
2022-10-24T15:06:09.111Z,101211.44
2022-10-24T15:08:38.833Z,101213.22
2022-10-24T15:11:19.360Z,101216.84
2022-10-24T15:14:05.177Z,101214.16
2022-10-24T15:16:38.133Z,101213.50
2022-10-24T15:19:11.019Z,101216.84
2022-10-24T15:21:44.374Z,101210.78
2022-10-24T15:24:22.781Z,101223.84
2022-10-24T15:26:51.678Z,101215.25
2022-10-24T15:29:21.878Z,101221.22
2022-10-24T15:31:51.129Z,101219.47
2022-10-24T15:34:20.735Z,101214.44
2022-10-24T15:36:52.042Z,101217.03
2022-10-24T15:39:22.987Z,101222.38
2022-10-24T15:41:51.185Z,101224.03
2022-10-24T15:44:21.839Z,101221.50
2022-10-24T15:46:50.129Z,101219.84
2022-10-24T15:49:18.498Z,101218.22
2022-10-24T15:51:50.181Z,101212.91
2022-10-24T15:54:22.009Z,101213.75
2022-10-24T15:56:50.509Z,101211.25
2022-10-24T15:59:20.065Z,101203.41
2022-10-24T16:01:52.218Z,101206.00
2022-10-24T16:04:21.566Z,101208.63
2022-10-24T16:06:49.632Z,101194.63
2022-10-24T16:09:21.535Z,101196.41
2022-10-24T16:11:49.466Z,101196.41
2022-10-24T16:14:22.538Z,101192.94
2022-10-24T16:16:50.391Z,101192.09
2022-10-24T16:19:18.440Z,101189.56
2022-10-24T16:21:46.269Z,101196.50
2022-10-24T16:24:14.928Z,101188.00
2022-10-24T16:26:44.249Z,101188.66
2022-10-24T16:29:12.192Z,101178.31
2022-10-24T16:31:40.079Z,101176.59
2022-10-24T16:34:08.926Z,101174.84
2022-10-24T16:36:36.866Z,101168.84
2022-10-24T16:39:05.227Z,101173.25
2022-10-24T16:41:33.137Z,101167.19
2022-10-24T16:44:02.470Z,101164.47
2022-10-24T16:46:30.386Z,101174.06
2022-10-24T16:48:58.306Z,101161.00
2022-10-24T16:51:32.021Z,101168.13
2022-10-24T16:54:00.501Z,101164.47
2022-10-24T16:56:28.527Z,101163.63
2022-10-24T16:58:56.350Z,101168.13
2022-10-24T17:01:27.578Z,101160.09
2022-10-24T17:03:56.118Z,101162.81
2022-10-24T17:06:24.019Z,101164.56
2022-10-24T17:08:52.594Z,101152.44
2022-10-24T17:11:43.766Z,101156.72
2022-10-24T17:14:09.623Z,101150.75
2022-10-24T17:16:39.033Z,101146.47
2022-10-24T17:19:16.516Z,101149.06
2022-10-24T17:21:46.847Z,101138.44
2022-10-24T17:24:16.840Z,101146.28
2022-10-24T17:26:45.026Z,101145.44
2022-10-24T17:29:16.261Z,101143.84
2022-10-24T17:31:45.756Z,101135.91
2022-10-24T17:34:13.892Z,101137.59
2022-10-24T17:36:47.371Z,101140.09
2022-10-24T17:39:18.912Z,101140.09
2022-10-24T17:41:47.602Z,101128.06
2022-10-24T17:44:17.850Z,101131.53
2022-10-24T17:46:47.628Z,101132.44
2022-10-24T17:49:20.819Z,101129.94
2022-10-24T17:51:52.856Z,101126.59
2022-10-24T17:54:20.717Z,101117.19
2022-10-24T17:56:48.647Z,101115.47
2022-10-24T17:59:16.511Z,101117.19
2022-10-24T18:01:44.517Z,101116.44
2022-10-24T18:04:13.883Z,101118.28
2022-10-24T18:06:43.489Z,101113.06
2022-10-24T18:09:11.775Z,101114.00
2022-10-24T18:11:40.100Z,101116.72
2022-10-24T18:14:08.548Z,101114.00
2022-10-24T18:16:38.677Z,101109.72
2022-10-24T18:19:07.267Z,101109.81
2022-10-24T18:21:36.642Z,101105.41
2022-10-24T18:24:07.868Z,101107.19
2022-10-24T18:26:35.816Z,101104.59
2022-10-24T18:29:03.848Z,101099.34
2022-10-24T18:31:32.241Z,101092.44
2022-10-24T18:34:06.066Z,101090.66
2022-10-24T18:36:37.773Z,101089.91
2022-10-24T18:39:06.953Z,101090.66
2022-10-24T18:41:42.712Z,101093.38
2022-10-24T18:44:23.661Z,101089.91
2022-10-24T18:46:52.797Z,101086.56
2022-10-24T18:49:21.266Z,101088.16
2022-10-24T18:51:58.516Z,101084.69
2022-10-24T18:54:27.076Z,101089.00
2022-10-24T18:56:57.413Z,101081.25
2022-10-24T18:59:25.560Z,101083.88
2022-10-24T19:02:12.454Z,101069.97
2022-10-24T19:04:43.866Z,101072.66
2022-10-24T19:07:13.279Z,101066.59
2022-10-24T19:09:41.341Z,101069.97
2022-10-24T19:12:10.140Z,101064.94
2022-10-24T19:14:38.604Z,101054.47
2022-10-24T19:17:07.286Z,101050.09
2022-10-24T19:19:38.162Z,101047.50
2022-10-24T19:22:06.032Z,101050.81
2022-10-24T19:24:35.299Z,101046.44
2022-10-24T19:27:05.619Z,101036.94
2022-10-24T19:29:33.467Z,101042.16
2022-10-24T19:32:01.399Z,101039.56
2022-10-24T19:34:31.083Z,101037.75
2022-10-24T19:37:00.027Z,101038.63
2022-10-24T19:39:30.339Z,101026.41
2022-10-24T19:42:02.965Z,101025.66
2022-10-24T19:44:30.807Z,101019.75
2022-10-24T19:46:58.931Z,101019.47
2022-10-24T19:49:26.821Z,101021.19
2022-10-24T19:51:56.841Z,101025.56
2022-10-24T19:54:24.727Z,101009.88
2022-10-24T19:56:54.317Z,101010.63
2022-10-24T19:59:23.747Z,101007.25
2022-10-24T20:01:51.909Z,101002.78
2022-10-24T20:04:20.043Z,101009.78
2022-10-24T20:06:48.084Z,100995.78
2022-10-24T20:09:16.013Z,101000.09
2022-10-24T20:11:46.357Z,100994.84
2022-10-24T20:14:14.222Z,100985.22
2022-10-24T20:16:43.463Z,100985.22
2022-10-24T20:19:11.342Z,100979.91
2022-10-24T20:21:39.388Z,100978.16
2022-10-24T20:24:08.047Z,100978.91
2022-10-24T20:26:36.346Z,100968.44
2022-10-24T20:29:05.428Z,100970.13
2022-10-24T20:31:35.537Z,100970.13
2022-10-24T20:34:09.730Z,100970.97
2022-10-24T20:38:52.358Z,100965.09
2022-10-24T20:41:20.766Z,100955.38
2022-10-24T20:46:19.951Z,100954.63
2022-10-24T20:48:47.835Z,100953.69
2022-10-24T20:51:18.135Z,100947.53
2022-10-24T20:53:46.932Z,100944.94
2022-10-24T20:56:18.940Z,100938.00
2022-10-24T20:58:47.143Z,100940.63
2022-10-24T21:01:17.036Z,100929.44
2022-10-24T21:03:45.319Z,100930.91
2022-10-24T21:06:21.514Z,100922.22
2022-10-24T21:08:50.997Z,100928.22
2022-10-24T21:11:24.913Z,100916.91
2022-10-24T21:13:54.423Z,100907.41
2022-10-24T21:16:22.966Z,100914.41
2022-10-24T21:18:50.903Z,100909.91
2022-10-24T21:21:19.764Z,100901.22
2022-10-24T21:23:51.543Z,100904.69
2022-10-24T21:26:21.373Z,100904.59
2022-10-24T21:28:49.608Z,100902.09
2022-10-24T21:31:19.232Z,100905.53
2022-10-24T21:33:47.485Z,100898.53
2022-10-24T21:36:16.750Z,100893.28
2022-10-24T21:38:48.521Z,100900.22
2022-10-24T21:41:16.401Z,100890.47
2022-10-24T21:43:46.427Z,100887.16
2022-10-24T21:46:16.305Z,100891.44
2022-10-24T21:48:45.175Z,100887.88
2022-10-24T21:51:15.032Z,100891.34
2022-10-24T21:53:45.807Z,100886.00
2022-10-24T21:56:16.150Z,100885.25
2022-10-24T21:58:49.307Z,100878.16
2022-10-24T22:01:20.761Z,100878.97
2022-10-24T22:03:48.886Z,100872.00
2022-10-24T22:06:18.962Z,100866.66
2022-10-24T22:08:47.986Z,100868.34
2022-10-24T22:11:18.630Z,100861.34
2022-10-24T22:13:48.312Z,100864.81
2022-10-24T22:16:17.981Z,100866.56
2022-10-24T22:18:46.504Z,100864.69
2022-10-24T22:21:23.682Z,100849.94
2022-10-24T22:23:51.674Z,100856.00
2022-10-24T22:26:19.572Z,100855.91
2022-10-24T22:28:49.423Z,100842.00
2022-10-24T22:31:17.907Z,100839.50
2022-10-24T22:33:46.295Z,100842.00
2022-10-24T22:36:31.543Z,100839.38
2022-10-24T22:38:59.928Z,100828.13
2022-10-24T22:41:29.233Z,100837.72
2022-10-24T22:43:59.099Z,100831.53
2022-10-24T22:46:40.951Z,100823.59
2022-10-24T22:49:20.446Z,100819.22
2022-10-24T22:51:48.842Z,100813.25
2022-10-24T22:54:21.253Z,100807.81
2022-10-24T22:56:50.177Z,100807.00
2022-10-24T22:59:20.104Z,100809.63
2022-10-24T23:02:00.816Z,100797.28
2022-10-24T23:04:35.447Z,100801.69
2022-10-24T23:07:11.183Z,100800.72
2022-10-24T23:09:39.030Z,100790.28
2022-10-24T23:12:12.565Z,100793.75
2022-10-24T23:14:42.671Z,100782.34
2022-10-24T23:17:15.011Z,100781.38
2022-10-24T23:19:46.901Z,100781.28
2022-10-24T23:22:23.758Z,100769.91
2022-10-24T23:24:53.441Z,100776.78
2022-10-24T23:27:31.160Z,100769.91
2022-10-24T23:30:01.800Z,100769.81
2022-10-24T23:32:31.725Z,100762.78
2022-10-24T23:35:01.208Z,100751.41
2022-10-24T23:37:34.674Z,100759.13
2022-10-24T23:40:04.247Z,100753.81
2022-10-24T23:42:32.572Z,100748.56
2022-10-24T23:45:04.131Z,100742.50
2022-10-24T23:48:00.251Z,100739.69
2022-10-24T23:50:35.550Z,100730.88
2022-10-24T23:53:25.002Z,100725.56
2022-10-24T23:55:53.761Z,100731.63
2022-10-24T23:58:21.688Z,100725.34
